This is the latest recevied weather packets stored in our database for station/object DK4MDA-13. If no packets are shown the sender has not sent any weather packets the latest 10 day(s).
| Time | Temp. | Humidity | Pressure | Rain* | Wind** | Luminosity | Snow |
|---|---|---|---|---|---|---|---|
| 1777556537 | 22.78° C | 31% | 1031 hPa | 0 mm | - | - | - |
| 1777556237 | 22.22° C | 30% | 1031.1 hPa | 0 mm | - | - | - |
| 1777555937 | 21.67° C | 30% | 1031.1 hPa | 0 mm | - | - | - |
| 1777555637 | 21.67° C | 31% | 1031.1 hPa | 0 mm | - | - | - |
| 1777555337 | 21.11° C | 32% | 1031 hPa | 0 mm | - | - | - |
| 1777555037 | 20.56° C | 32% | 1031.2 hPa | 0 mm | - | - | - |
| 1777554737 | 19.44° C | 35% | 1031.3 hPa | 0 mm | - | - | - |
| 1777554437 | 19.44° C | 33% | 1031.4 hPa | 0 mm | - | - | - |
| 1777554137 | 19.44° C | 33% | 1031.4 hPa | 0 mm | - | - | - |
| 1777553837 | 19.44° C | 37% | 1031.4 hPa | 0 mm | - | - | - |
| 1777553537 | 19.44° C | 36% | 1031.4 hPa | 0 mm | - | - | - |
| 1777553237 | 20.56° C | 34% | 1031.5 hPa | 0 mm | - | - | - |
| 1777552937 | 21.67° C | 30% | 1031.6 hPa | 0 mm | - | - | - |
| 1777552637 | 21.67° C | 30% | 1031.7 hPa | 0 mm | - | - | - |
| 1777552337 | 21.11° C | 29% | 1031.6 hPa | 0 mm | - | - | - |
| 1777552037 | 20.56° C | 31% | 1031.8 hPa | 0 mm | - | - | - |
| 1777551737 | 20.56° C | 31% | 1031.8 hPa | 0 mm | - | - | - |
| 1777551437 | 20.56° C | 33% | 1031.9 hPa | 0 mm | - | - | - |
| 1777551137 | 20.56° C | 35% | 1031.7 hPa | 0 mm | - | - | - |
| 1777550837 | 20.56° C | 32% | 1031.9 hPa | 0 mm | - | - | - |
| 1777550537 | 20.56° C | 31% | 1031.8 hPa | 0 mm | - | - | - |
| 1777550237 | 20.56° C | 30% | 1032 hPa | 0 mm | - | - | - |
| 1777549937 | 20.56° C | 31% | 1032.1 hPa | 0 mm | - | - | - |
| 1777549637 | 20° C | 33% | 1032 hPa | 0 mm | - | - | - |
| 1777549337 | 19.44° C | 34% | 1032.3 hPa | 0 mm | - | - | - |
* Rain latest hour (hover to see other rain measurements)
** Current wind speed in m/s (hover to see current wind gust speed)